Dawson, Iowa
Current Conditions -  °F | °C
As of 1:15 AM on Saturday 20 Dec 2014 (Local Time) from KPRO Reporting Station
Overcast Overcast  
Wind Chill: 24°   Ceiling: 1200
Heat Index: 31°   Visibility: 7mi
Dew Point: 30°   Wind: 7mph
Humidity: 98%   Direction: 200°SSW
Pressure: 30.17"   Gusts: NA
Location:  41.84°N, 94.22°W
Report Text: KPRO 200715Z AUTO 20006KT 7SM SCT008 OVC012 M01/M01 A3017 RMK AO2 T10061009
Loading
Personal Weather Stations






























Interactive Weather Map New forecast layout! Learn more

10-Day Weather Forecast

Advertisements
Track Severe Weather on mobile